sensor_id;sensor_type;location;lat;lon;timestamp;P1;durP1;ratioP1;P2;durP2;ratioP2
54627;SDS011;40525;55.926;21.066;2023-07-16T00:01:41;2.30;;;1.30;;
54627;SDS011;40525;55.926;21.066;2023-07-16T00:04:32;2.10;;;1.30;;
54627;SDS011;40525;55.926;21.066;2023-07-16T00:07:19;1.60;;;1.30;;
54627;SDS011;40525;55.926;21.066;2023-07-16T00:09:52;1.70;;;1.40;;
54627;SDS011;40525;55.926;21.066;2023-07-16T00:12:40;2.40;;;1.40;;
54627;SDS011;40525;55.926;21.066;2023-07-16T00:15:20;2.70;;;1.60;;
54627;SDS011;40525;55.926;21.066;2023-07-16T00:18:00;1.80;;;1.30;;
54627;SDS011;40525;55.926;21.066;2023-07-16T00:20:40;2.30;;;1.30;;
54627;SDS011;40525;55.926;21.066;2023-07-16T00:23:20;3.40;;;1.50;;
54627;SDS011;40525;55.926;21.066;2023-07-16T00:26:00;4.50;;;1.50;;
54627;SDS011;40525;55.926;21.066;2023-07-16T00:28:40;2.20;;;1.20;;
54627;SDS011;40525;55.926;21.066;2023-07-16T00:31:20;2.70;;;1.60;;
54627;SDS011;40525;55.926;21.066;2023-07-16T00:34:00;1.80;;;1.40;;
54627;SDS011;40525;55.926;21.066;2023-07-16T00:36:40;2.70;;;1.40;;
54627;SDS011;40525;55.926;21.066;2023-07-16T00:39:20;2.60;;;1.40;;
54627;SDS011;40525;55.926;21.066;2023-07-16T00:42:00;1.30;;;1.10;;
54627;SDS011;40525;55.926;21.066;2023-07-16T00:44:41;1.80;;;1.30;;
54627;SDS011;40525;55.926;21.066;2023-07-16T00:47:21;3.30;;;1.30;;
54627;SDS011;40525;55.926;21.066;2023-07-16T00:50:02;3.20;;;1.40;;
54627;SDS011;40525;55.926;21.066;2023-07-16T00:52:42;2.00;;;1.20;;
54627;SDS011;40525;55.926;21.066;2023-07-16T00:55:24;3.10;;;1.30;;
54627;SDS011;40525;55.926;21.066;2023-07-16T00:58:05;2.00;;;1.00;;
54627;SDS011;40525;55.926;21.066;2023-07-16T01:00:46;1.70;;;1.20;;
54627;SDS011;40525;55.926;21.066;2023-07-16T01:03:26;1.70;;;1.30;;
54627;SDS011;40525;55.926;21.066;2023-07-16T01:06:14;4.30;;;1.80;;
54627;SDS011;40525;55.926;21.066;2023-07-16T01:09:10;2.30;;;1.30;;
54627;SDS011;40525;55.926;21.066;2023-07-16T01:11:56;2.80;;;1.50;;
54627;SDS011;40525;55.926;21.066;2023-07-16T01:14:38;1.40;;;1.00;;
54627;SDS011;40525;55.926;21.066;2023-07-16T01:17:20;2.00;;;1.30;;
54627;SDS011;40525;55.926;21.066;2023-07-16T01:20:00;4.30;;;1.30;;
54627;SDS011;40525;55.926;21.066;2023-07-16T01:22:46;2.10;;;1.20;;
54627;SDS011;40525;55.926;21.066;2023-07-16T01:31:54;1.80;;;1.10;;
54627;SDS011;40525;55.926;21.066;2023-07-16T01:34:36;1.50;;;1.10;;
54627;SDS011;40525;55.926;21.066;2023-07-16T01:37:18;2.40;;;1.10;;
54627;SDS011;40525;55.926;21.066;2023-07-16T01:39:57;3.80;;;1.40;;
54627;SDS011;40525;55.926;21.066;2023-07-16T01:42:38;3.10;;;1.20;;
54627;SDS011;40525;55.926;21.066;2023-07-16T01:45:18;2.40;;;1.10;;
54627;SDS011;40525;55.926;21.066;2023-07-16T01:51:21;2.70;;;1.30;;
54627;SDS011;40525;55.926;21.066;2023-07-16T01:53:56;2.00;;;1.10;;
54627;SDS011;40525;55.926;21.066;2023-07-16T01:56:44;2.00;;;1.30;;
54627;SDS011;40525;55.926;21.066;2023-07-16T01:59:18;2.80;;;1.00;;
54627;SDS011;40525;55.926;21.066;2023-07-16T02:02:05;2.00;;;1.30;;
54627;SDS011;40525;55.926;21.066;2023-07-16T02:04:39;1.90;;;1.20;;
54627;SDS011;40525;55.926;21.066;2023-07-16T02:07:26;1.40;;;0.90;;
54627;SDS011;40525;55.926;21.066;2023-07-16T02:10:01;2.50;;;1.50;;
54627;SDS011;40525;55.926;21.066;2023-07-16T02:12:47;2.20;;;1.20;;
54627;SDS011;40525;55.926;21.066;2023-07-16T02:15:21;2.10;;;1.40;;
54627;SDS011;40525;55.926;21.066;2023-07-16T02:18:09;2.50;;;1.10;;
54627;SDS011;40525;55.926;21.066;2023-07-16T02:20:43;3.20;;;1.40;;
54627;SDS011;40525;55.926;21.066;2023-07-16T02:23:30;2.40;;;1.30;;
54627;SDS011;40525;55.926;21.066;2023-07-16T02:26:04;2.50;;;1.10;;
54627;SDS011;40525;55.926;21.066;2023-07-16T02:28:50;2.80;;;1.40;;
54627;SDS011;40525;55.926;21.066;2023-07-16T02:31:24;2.80;;;1.30;;
54627;SDS011;40525;55.926;21.066;2023-07-16T02:34:10;2.20;;;1.20;;
54627;SDS011;40525;55.926;21.066;2023-07-16T02:36:44;2.20;;;1.10;;
54627;SDS011;40525;55.926;21.066;2023-07-16T02:39:33;2.50;;;1.30;;
54627;SDS011;40525;55.926;21.066;2023-07-16T02:42:07;2.30;;;1.30;;
54627;SDS011;40525;55.926;21.066;2023-07-16T02:44:55;1.50;;;1.40;;
54627;SDS011;40525;55.926;21.066;2023-07-16T02:47:29;2.80;;;1.50;;
54627;SDS011;40525;55.926;21.066;2023-07-16T02:50:17;1.40;;;1.20;;
54627;SDS011;40525;55.926;21.066;2023-07-16T02:52:51;4.00;;;1.50;;
54627;SDS011;40525;55.926;21.066;2023-07-16T02:55:37;3.20;;;1.60;;
54627;SDS011;40525;55.926;21.066;2023-07-16T02:58:11;2.10;;;1.20;;
54627;SDS011;40525;55.926;21.066;2023-07-16T03:00:58;2.90;;;1.40;;
54627;SDS011;40525;55.926;21.066;2023-07-16T03:03:33;2.80;;;1.40;;
54627;SDS011;40525;55.926;21.066;2023-07-16T03:06:22;3.30;;;1.60;;
54627;SDS011;40525;55.926;21.066;2023-07-16T03:09:16;3.30;;;1.60;;
54627;SDS011;40525;55.926;21.066;2023-07-16T03:12:10;2.00;;;1.40;;
54627;SDS011;40525;55.926;21.066;2023-07-16T03:14:44;4.00;;;1.60;;
54627;SDS011;40525;55.926;21.066;2023-07-16T03:17:34;3.70;;;1.30;;
54627;SDS011;40525;55.926;21.066;2023-07-16T03:20:08;3.60;;;1.70;;
54627;SDS011;40525;55.926;21.066;2023-07-16T03:22:55;2.90;;;1.60;;
54627;SDS011;40525;55.926;21.066;2023-07-16T03:25:29;2.00;;;1.50;;
54627;SDS011;40525;55.926;21.066;2023-07-16T03:28:15;2.20;;;1.60;;
54627;SDS011;40525;55.926;21.066;2023-07-16T03:30:49;2.50;;;1.60;;
54627;SDS011;40525;55.926;21.066;2023-07-16T03:33:37;3.00;;;1.60;;
54627;SDS011;40525;55.926;21.066;2023-07-16T03:36:11;3.00;;;1.80;;
54627;SDS011;40525;55.926;21.066;2023-07-16T03:38:58;2.10;;;1.60;;
54627;SDS011;40525;55.926;21.066;2023-07-16T03:41:33;3.40;;;2.10;;
54627;SDS011;40525;55.926;21.066;2023-07-16T03:44:20;3.80;;;1.60;;
54627;SDS011;40525;55.926;21.066;2023-07-16T03:46:54;2.60;;;1.70;;
54627;SDS011;40525;55.926;21.066;2023-07-16T03:49:41;2.10;;;1.50;;
54627;SDS011;40525;55.926;21.066;2023-07-16T03:52:15;5.80;;;1.80;;
54627;SDS011;40525;55.926;21.066;2023-07-16T03:55:04;2.90;;;1.70;;
54627;SDS011;40525;55.926;21.066;2023-07-16T03:57:40;4.30;;;1.90;;
54627;SDS011;40525;55.926;21.066;2023-07-16T04:00:27;2.60;;;1.60;;
54627;SDS011;40525;55.926;21.066;2023-07-16T04:03:01;2.90;;;1.60;;
54627;SDS011;40525;55.926;21.066;2023-07-16T04:05:47;2.90;;;2.20;;
54627;SDS011;40525;55.926;21.066;2023-07-16T04:08:41;2.40;;;1.70;;
54627;SDS011;40525;55.926;21.066;2023-07-16T04:11:35;2.70;;;1.90;;
54627;SDS011;40525;55.926;21.066;2023-07-16T04:14:09;3.10;;;1.60;;
54627;SDS011;40525;55.926;21.066;2023-07-16T04:16:55;3.80;;;1.90;;
54627;SDS011;40525;55.926;21.066;2023-07-16T04:19:29;2.40;;;1.90;;
54627;SDS011;40525;55.926;21.066;2023-07-16T04:22:16;2.60;;;2.00;;
54627;SDS011;40525;55.926;21.066;2023-07-16T04:24:51;3.40;;;1.90;;
54627;SDS011;40525;55.926;21.066;2023-07-16T04:27:39;2.50;;;1.90;;
54627;SDS011;40525;55.926;21.066;2023-07-16T04:30:15;4.90;;;2.00;;
54627;SDS011;40525;55.926;21.066;2023-07-16T04:33:01;3.00;;;1.50;;
54627;SDS011;40525;55.926;21.066;2023-07-16T04:35:35;4.20;;;1.80;;
54627;SDS011;40525;55.926;21.066;2023-07-16T04:38:21;2.60;;;1.70;;
54627;SDS011;40525;55.926;21.066;2023-07-16T04:40:55;4.00;;;2.00;;
54627;SDS011;40525;55.926;21.066;2023-07-16T04:43:41;2.20;;;2.00;;
54627;SDS011;40525;55.926;21.066;2023-07-16T04:46:17;3.00;;;2.10;;
54627;SDS011;40525;55.926;21.066;2023-07-16T04:49:04;4.10;;;1.90;;
54627;SDS011;40525;55.926;21.066;2023-07-16T04:51:39;3.70;;;2.10;;
54627;SDS011;40525;55.926;21.066;2023-07-16T04:54:26;4.00;;;1.90;;
54627;SDS011;40525;55.926;21.066;2023-07-16T04:57:00;3.60;;;2.20;;
54627;SDS011;40525;55.926;21.066;2023-07-16T04:59:46;3.70;;;2.30;;
54627;SDS011;40525;55.926;21.066;2023-07-16T05:02:20;3.30;;;2.20;;
54627;SDS011;40525;55.926;21.066;2023-07-16T05:05:07;2.80;;;2.20;;
54627;SDS011;40525;55.926;21.066;2023-07-16T05:08:01;2.60;;;1.70;;
54627;SDS011;40525;55.926;21.066;2023-07-16T05:10:56;3.10;;;1.90;;
54627;SDS011;40525;55.926;21.066;2023-07-16T05:13:31;4.60;;;2.30;;
54627;SDS011;40525;55.926;21.066;2023-07-16T05:16:17;3.80;;;2.10;;
54627;SDS011;40525;55.926;21.066;2023-07-16T05:18:51;2.50;;;2.20;;
54627;SDS011;40525;55.926;21.066;2023-07-16T05:21:37;4.40;;;2.20;;
54627;SDS011;40525;55.926;21.066;2023-07-16T05:24:10;2.70;;;2.20;;
54627;SDS011;40525;55.926;21.066;2023-07-16T05:26:57;3.60;;;2.60;;
54627;SDS011;40525;55.926;21.066;2023-07-16T05:29:32;3.10;;;2.20;;
54627;SDS011;40525;55.926;21.066;2023-07-16T05:32:19;6.60;;;2.80;;
54627;SDS011;40525;55.926;21.066;2023-07-16T05:34:53;3.60;;;2.60;;
54627;SDS011;40525;55.926;21.066;2023-07-16T05:37:42;5.70;;;2.70;;
54627;SDS011;40525;55.926;21.066;2023-07-16T05:40:15;8.10;;;2.80;;
54627;SDS011;40525;55.926;21.066;2023-07-16T05:43:03;4.10;;;2.60;;
54627;SDS011;40525;55.926;21.066;2023-07-16T05:45:36;5.70;;;3.20;;
54627;SDS011;40525;55.926;21.066;2023-07-16T05:48:23;3.80;;;2.70;;
54627;SDS011;40525;55.926;21.066;2023-07-16T05:50:57;7.40;;;3.10;;
54627;SDS011;40525;55.926;21.066;2023-07-16T05:53:44;6.10;;;3.00;;
54627;SDS011;40525;55.926;21.066;2023-07-16T05:56:17;4.40;;;2.50;;
54627;SDS011;40525;55.926;21.066;2023-07-16T05:59:04;2.60;;;2.30;;
54627;SDS011;40525;55.926;21.066;2023-07-16T06:01:37;4.00;;;2.40;;
54627;SDS011;40525;55.926;21.066;2023-07-16T06:04:24;3.90;;;2.40;;
54627;SDS011;40525;55.926;21.066;2023-07-16T06:06:57;4.30;;;3.00;;
54627;SDS011;40525;55.926;21.066;2023-07-16T06:09:45;4.70;;;2.90;;
54627;SDS011;40525;55.926;21.066;2023-07-16T06:12:18;4.60;;;2.60;;
54627;SDS011;40525;55.926;21.066;2023-07-16T06:15:06;8.40;;;3.80;;
54627;SDS011;40525;55.926;21.066;2023-07-16T06:17:41;4.50;;;3.10;;
54627;SDS011;40525;55.926;21.066;2023-07-16T06:20:28;3.60;;;2.80;;
54627;SDS011;40525;55.926;21.066;2023-07-16T06:23:01;5.30;;;2.90;;
54627;SDS011;40525;55.926;21.066;2023-07-16T06:25:53;6.70;;;3.60;;
54627;SDS011;40525;55.926;21.066;2023-07-16T06:28:27;5.80;;;2.60;;
54627;SDS011;40525;55.926;21.066;2023-07-16T06:31:14;3.60;;;2.60;;
54627;SDS011;40525;55.926;21.066;2023-07-16T06:33:50;6.70;;;2.80;;
54627;SDS011;40525;55.926;21.066;2023-07-16T06:36:38;5.20;;;3.10;;
54627;SDS011;40525;55.926;21.066;2023-07-16T06:39:11;3.30;;;2.80;;
54627;SDS011;40525;55.926;21.066;2023-07-16T06:41:58;5.30;;;2.60;;
54627;SDS011;40525;55.926;21.066;2023-07-16T06:44:32;5.90;;;4.10;;
54627;SDS011;40525;55.926;21.066;2023-07-16T06:47:19;4.80;;;2.90;;
54627;SDS011;40525;55.926;21.066;2023-07-16T06:49:53;3.00;;;2.70;;
54627;SDS011;40525;55.926;21.066;2023-07-16T06:52:40;5.00;;;2.80;;
54627;SDS011;40525;55.926;21.066;2023-07-16T06:55:21;5.00;;;3.10;;
54627;SDS011;40525;55.926;21.066;2023-07-16T06:58:11;4.60;;;2.90;;
54627;SDS011;40525;55.926;21.066;2023-07-16T07:03:33;5.30;;;3.10;;
54627;SDS011;40525;55.926;21.066;2023-07-16T07:06:07;3.70;;;3.00;;
54627;SDS011;40525;55.926;21.066;2023-07-16T07:08:55;10.60;;;3.30;;
54627;SDS011;40525;55.926;21.066;2023-07-16T07:11:29;4.20;;;3.00;;
54627;SDS011;40525;55.926;21.066;2023-07-16T07:14:20;4.10;;;3.30;;
54627;SDS011;40525;55.926;21.066;2023-07-16T07:16:53;5.60;;;3.40;;
54627;SDS011;40525;55.926;21.066;2023-07-16T07:19:40;3.10;;;2.60;;
54627;SDS011;40525;55.926;21.066;2023-07-16T07:22:15;6.30;;;2.90;;
54627;SDS011;40525;55.926;21.066;2023-07-16T07:25:08;4.70;;;3.00;;
54627;SDS011;40525;55.926;21.066;2023-07-16T07:27:41;3.50;;;3.00;;
54627;SDS011;40525;55.926;21.066;2023-07-16T07:30:29;4.80;;;2.80;;
54627;SDS011;40525;55.926;21.066;2023-07-16T07:33:02;4.00;;;3.10;;
54627;SDS011;40525;55.926;21.066;2023-07-16T07:35:49;4.80;;;3.40;;
54627;SDS011;40525;55.926;21.066;2023-07-16T07:38:28;6.50;;;3.10;;
54627;SDS011;40525;55.926;21.066;2023-07-16T07:41:16;4.10;;;3.10;;
54627;SDS011;40525;55.926;21.066;2023-07-16T07:43:50;4.80;;;2.60;;
54627;SDS011;40525;55.926;21.066;2023-07-16T07:46:37;4.20;;;3.20;;
54627;SDS011;40525;55.926;21.066;2023-07-16T07:49:10;5.60;;;2.80;;
54627;SDS011;40525;55.926;21.066;2023-07-16T07:52:01;4.80;;;3.20;;
54627;SDS011;40525;55.926;21.066;2023-07-16T07:54:34;5.60;;;3.10;;
54627;SDS011;40525;55.926;21.066;2023-07-16T07:57:22;4.20;;;3.00;;
54627;SDS011;40525;55.926;21.066;2023-07-16T07:59:55;7.50;;;2.90;;
54627;SDS011;40525;55.926;21.066;2023-07-16T08:02:44;4.20;;;3.10;;
54627;SDS011;40525;55.926;21.066;2023-07-16T08:05:18;5.10;;;3.00;;
54627;SDS011;40525;55.926;21.066;2023-07-16T08:08:05;3.90;;;3.00;;
54627;SDS011;40525;55.926;21.066;2023-07-16T08:10:38;4.30;;;3.20;;
54627;SDS011;40525;55.926;21.066;2023-07-16T08:13:26;5.40;;;2.90;;
54627;SDS011;40525;55.926;21.066;2023-07-16T08:15:59;5.80;;;2.90;;
54627;SDS011;40525;55.926;21.066;2023-07-16T08:18:46;4.40;;;3.00;;
54627;SDS011;40525;55.926;21.066;2023-07-16T08:21:19;6.20;;;2.90;;
54627;SDS011;40525;55.926;21.066;2023-07-16T08:24:07;4.40;;;2.60;;
54627;SDS011;40525;55.926;21.066;2023-07-16T08:26:40;4.30;;;2.90;;
54627;SDS011;40525;55.926;21.066;2023-07-16T08:29:27;4.30;;;3.20;;
54627;SDS011;40525;55.926;21.066;2023-07-16T08:32:02;5.70;;;2.90;;
54627;SDS011;40525;55.926;21.066;2023-07-16T08:34:49;3.40;;;2.90;;
54627;SDS011;40525;55.926;21.066;2023-07-16T08:37:23;4.00;;;3.20;;
54627;SDS011;40525;55.926;21.066;2023-07-16T08:40:14;4.70;;;2.90;;
54627;SDS011;40525;55.926;21.066;2023-07-16T08:42:47;5.10;;;2.80;;
54627;SDS011;40525;55.926;21.066;2023-07-16T08:45:38;5.00;;;3.10;;
54627;SDS011;40525;55.926;21.066;2023-07-16T08:48:20;6.10;;;3.10;;
54627;SDS011;40525;55.926;21.066;2023-07-16T08:51:08;3.50;;;2.50;;
54627;SDS011;40525;55.926;21.066;2023-07-16T08:53:44;4.50;;;2.90;;
54627;SDS011;40525;55.926;21.066;2023-07-16T08:56:30;9.50;;;3.00;;
54627;SDS011;40525;55.926;21.066;2023-07-16T08:59:04;16.40;;;3.40;;
54627;SDS011;40525;55.926;21.066;2023-07-16T09:01:51;14.50;;;3.40;;
54627;SDS011;40525;55.926;21.066;2023-07-16T09:04:25;10.30;;;3.30;;
54627;SDS011;40525;55.926;21.066;2023-07-16T09:07:14;4.40;;;3.00;;
54627;SDS011;40525;55.926;21.066;2023-07-16T09:09:56;6.00;;;3.00;;
54627;SDS011;40525;55.926;21.066;2023-07-16T09:12:47;6.30;;;3.00;;
54627;SDS011;40525;55.926;21.066;2023-07-16T09:15:22;8.30;;;4.90;;
54627;SDS011;40525;55.926;21.066;2023-07-16T09:18:09;6.10;;;3.20;;
54627;SDS011;40525;55.926;21.066;2023-07-16T09:20:46;16.30;;;3.50;;
54627;SDS011;40525;55.926;21.066;2023-07-16T09:23:32;4.80;;;3.00;;
54627;SDS011;40525;55.926;21.066;2023-07-16T09:26:07;3.80;;;3.10;;
54627;SDS011;40525;55.926;21.066;2023-07-16T09:28:54;7.30;;;3.10;;
54627;SDS011;40525;55.926;21.066;2023-07-16T09:31:28;6.50;;;3.50;;
54627;SDS011;40525;55.926;21.066;2023-07-16T09:34:14;4.60;;;3.00;;
54627;SDS011;40525;55.926;21.066;2023-07-16T09:36:48;4.10;;;3.10;;
54627;SDS011;40525;55.926;21.066;2023-07-16T09:39:36;4.80;;;3.00;;
54627;SDS011;40525;55.926;21.066;2023-07-16T09:42:10;8.80;;;3.20;;
54627;SDS011;40525;55.926;21.066;2023-07-16T09:45:02;3.30;;;3.00;;
54627;SDS011;40525;55.926;21.066;2023-07-16T09:47:38;6.60;;;3.20;;
54627;SDS011;40525;55.926;21.066;2023-07-16T09:50:31;5.70;;;3.20;;
54627;SDS011;40525;55.926;21.066;2023-07-16T09:53:06;3.10;;;2.80;;
54627;SDS011;40525;55.926;21.066;2023-07-16T09:55:53;4.50;;;3.20;;
54627;SDS011;40525;55.926;21.066;2023-07-16T09:58:28;4.10;;;3.40;;
54627;SDS011;40525;55.926;21.066;2023-07-16T10:01:16;9.70;;;3.50;;
54627;SDS011;40525;55.926;21.066;2023-07-16T10:03:50;8.20;;;4.00;;
54627;SDS011;40525;55.926;21.066;2023-07-16T10:06:55;4.80;;;3.50;;
54627;SDS011;40525;55.926;21.066;2023-07-16T10:09:55;5.10;;;3.70;;
54627;SDS011;40525;55.926;21.066;2023-07-16T10:12:57;4.50;;;3.80;;
54627;SDS011;40525;55.926;21.066;2023-07-16T10:15:34;5.50;;;4.10;;
54627;SDS011;40525;55.926;21.066;2023-07-16T10:18:29;5.00;;;3.80;;
54627;SDS011;40525;55.926;21.066;2023-07-16T10:21:04;5.30;;;3.60;;
54627;SDS011;40525;55.926;21.066;2023-07-16T10:23:58;5.70;;;3.80;;
54627;SDS011;40525;55.926;21.066;2023-07-16T10:26:40;5.60;;;3.60;;
54627;SDS011;40525;55.926;21.066;2023-07-16T10:29:19;4.40;;;3.70;;
54627;SDS011;40525;55.926;21.066;2023-07-16T10:31:59;5.50;;;3.60;;
54627;SDS011;40525;55.926;21.066;2023-07-16T10:34:40;4.30;;;3.80;;
54627;SDS011;40525;55.926;21.066;2023-07-16T10:37:20;6.20;;;3.80;;
54627;SDS011;40525;55.926;21.066;2023-07-16T10:40:02;4.80;;;4.20;;
54627;SDS011;40525;55.926;21.066;2023-07-16T10:42:45;7.50;;;4.10;;
54627;SDS011;40525;55.926;21.066;2023-07-16T10:45:26;5.90;;;4.50;;
54627;SDS011;40525;55.926;21.066;2023-07-16T10:48:08;6.10;;;4.80;;
54627;SDS011;40525;55.926;21.066;2023-07-16T10:53:32;8.60;;;6.80;;
54627;SDS011;40525;55.926;21.066;2023-07-16T10:56:12;8.20;;;6.30;;
54627;SDS011;40525;55.926;21.066;2023-07-16T10:58:52;8.20;;;6.30;;
54627;SDS011;40525;55.926;21.066;2023-07-16T11:01:33;8.40;;;6.10;;
54627;SDS011;40525;55.926;21.066;2023-07-16T11:04:13;6.10;;;5.40;;
54627;SDS011;40525;55.926;21.066;2023-07-16T11:06:54;5.90;;;5.30;;
54627;SDS011;40525;55.926;21.066;2023-07-16T11:09:40;6.10;;;5.20;;
54627;SDS011;40525;55.926;21.066;2023-07-16T11:12:22;4.80;;;4.30;;
54627;SDS011;40525;55.926;21.066;2023-07-16T11:15:02;5.40;;;4.50;;
54627;SDS011;40525;55.926;21.066;2023-07-16T11:17:48;6.40;;;4.80;;
54627;SDS011;40525;55.926;21.066;2023-07-16T11:20:30;6.40;;;4.80;;
54627;SDS011;40525;55.926;21.066;2023-07-16T11:23:10;5.80;;;4.60;;
54627;SDS011;40525;55.926;21.066;2023-07-16T11:25:51;5.70;;;4.40;;
54627;SDS011;40525;55.926;21.066;2023-07-16T11:28:38;7.80;;;6.60;;
54627;SDS011;40525;55.926;21.066;2023-07-16T11:31:20;6.40;;;4.90;;
54627;SDS011;40525;55.926;21.066;2023-07-16T11:34:00;5.90;;;4.80;;
54627;SDS011;40525;55.926;21.066;2023-07-16T11:36:41;4.70;;;4.30;;
54627;SDS011;40525;55.926;21.066;2023-07-16T11:39:24;5.00;;;4.30;;
54627;SDS011;40525;55.926;21.066;2023-07-16T11:42:08;6.30;;;4.70;;
54627;SDS011;40525;55.926;21.066;2023-07-16T11:44:49;4.30;;;3.90;;
54627;SDS011;40525;55.926;21.066;2023-07-16T11:47:30;4.10;;;3.80;;
54627;SDS011;40525;55.926;21.066;2023-07-16T11:50:13;5.40;;;4.60;;
54627;SDS011;40525;55.926;21.066;2023-07-16T11:52:54;6.30;;;4.40;;
54627;SDS011;40525;55.926;21.066;2023-07-16T11:55:36;6.00;;;4.60;;
54627;SDS011;40525;55.926;21.066;2023-07-16T11:58:17;6.40;;;4.60;;
54627;SDS011;40525;55.926;21.066;2023-07-16T12:00:58;5.20;;;4.70;;
54627;SDS011;40525;55.926;21.066;2023-07-16T12:03:38;4.70;;;4.00;;
54627;SDS011;40525;55.926;21.066;2023-07-16T12:06:18;4.90;;;4.40;;
54627;SDS011;40525;55.926;21.066;2023-07-16T12:08:58;5.00;;;4.10;;
54627;SDS011;40525;55.926;21.066;2023-07-16T12:11:40;6.50;;;4.60;;
54627;SDS011;40525;55.926;21.066;2023-07-16T12:14:20;4.70;;;4.20;;
54627;SDS011;40525;55.926;21.066;2023-07-16T12:17:01;6.80;;;4.50;;
54627;SDS011;40525;55.926;21.066;2023-07-16T12:19:43;5.70;;;4.40;;
54627;SDS011;40525;55.926;21.066;2023-07-16T12:22:24;4.60;;;3.80;;
54627;SDS011;40525;55.926;21.066;2023-07-16T12:25:05;6.70;;;4.30;;
54627;SDS011;40525;55.926;21.066;2023-07-16T12:27:45;4.50;;;4.10;;
54627;SDS011;40525;55.926;21.066;2023-07-16T12:30:28;6.90;;;4.50;;
54627;SDS011;40525;55.926;21.066;2023-07-16T12:33:09;4.70;;;3.90;;
54627;SDS011;40525;55.926;21.066;2023-07-16T12:35:50;4.90;;;4.00;;
54627;SDS011;40525;55.926;21.066;2023-07-16T12:38:33;5.00;;;4.00;;
54627;SDS011;40525;55.926;21.066;2023-07-16T12:41:13;4.20;;;3.80;;
54627;SDS011;40525;55.926;21.066;2023-07-16T12:43:53;5.60;;;4.20;;
54627;SDS011;40525;55.926;21.066;2023-07-16T12:46:33;5.00;;;4.00;;
54627;SDS011;40525;55.926;21.066;2023-07-16T12:49:13;5.40;;;4.20;;
54627;SDS011;40525;55.926;21.066;2023-07-16T12:51:53;6.30;;;4.30;;
54627;SDS011;40525;55.926;21.066;2023-07-16T12:54:33;5.90;;;4.40;;
54627;SDS011;40525;55.926;21.066;2023-07-16T12:57:13;4.50;;;3.50;;
54627;SDS011;40525;55.926;21.066;2023-07-16T12:59:55;5.70;;;4.20;;
54627;SDS011;40525;55.926;21.066;2023-07-16T13:02:35;4.30;;;3.90;;
54627;SDS011;40525;55.926;21.066;2023-07-16T13:05:15;6.30;;;3.70;;
54627;SDS011;40525;55.926;21.066;2023-07-16T13:08:02;5.70;;;3.60;;
54627;SDS011;40525;55.926;21.066;2023-07-16T13:10:56;5.70;;;3.70;;
54627;SDS011;40525;55.926;21.066;2023-07-16T13:13:30;5.20;;;3.70;;
54627;SDS011;40525;55.926;21.066;2023-07-16T13:16:17;3.90;;;3.20;;
54627;SDS011;40525;55.926;21.066;2023-07-16T13:18:50;4.30;;;3.10;;
54627;SDS011;40525;55.926;21.066;2023-07-16T13:21:37;4.60;;;3.20;;
54627;SDS011;40525;55.926;21.066;2023-07-16T13:24:10;4.40;;;3.40;;
54627;SDS011;40525;55.926;21.066;2023-07-16T13:26:57;4.90;;;3.10;;
54627;SDS011;40525;55.926;21.066;2023-07-16T13:29:30;4.40;;;3.40;;
54627;SDS011;40525;55.926;21.066;2023-07-16T13:32:17;3.50;;;3.10;;
54627;SDS011;40525;55.926;21.066;2023-07-16T13:34:50;5.20;;;3.00;;
54627;SDS011;40525;55.926;21.066;2023-07-16T13:37:38;3.50;;;3.10;;
54627;SDS011;40525;55.926;21.066;2023-07-16T13:40:18;5.10;;;2.90;;
54627;SDS011;40525;55.926;21.066;2023-07-16T13:42:59;2.90;;;2.60;;
54627;SDS011;40525;55.926;21.066;2023-07-16T13:45:39;5.70;;;3.20;;
54627;SDS011;40525;55.926;21.066;2023-07-16T13:48:20;5.50;;;3.10;;
54627;SDS011;40525;55.926;21.066;2023-07-16T13:51:02;4.50;;;3.10;;
54627;SDS011;40525;55.926;21.066;2023-07-16T13:53:42;3.90;;;2.60;;
54627;SDS011;40525;55.926;21.066;2023-07-16T13:56:22;5.20;;;2.90;;
54627;SDS011;40525;55.926;21.066;2023-07-16T13:59:04;4.40;;;3.00;;
54627;SDS011;40525;55.926;21.066;2023-07-16T14:01:44;7.20;;;3.00;;
54627;SDS011;40525;55.926;21.066;2023-07-16T14:04:25;4.60;;;3.00;;
54627;SDS011;40525;55.926;21.066;2023-07-16T14:07:12;7.30;;;3.50;;
54627;SDS011;40525;55.926;21.066;2023-07-16T14:10:06;5.00;;;2.80;;
54627;SDS011;40525;55.926;21.066;2023-07-16T14:12:47;5.30;;;3.00;;
54627;SDS011;40525;55.926;21.066;2023-07-16T14:15:27;4.90;;;3.00;;
54627;SDS011;40525;55.926;21.066;2023-07-16T14:18:08;4.20;;;2.90;;
54627;SDS011;40525;55.926;21.066;2023-07-16T14:20:49;4.80;;;2.70;;
54627;SDS011;40525;55.926;21.066;2023-07-16T14:23:29;5.20;;;2.80;;
54627;SDS011;40525;55.926;21.066;2023-07-16T14:26:10;4.40;;;3.10;;
54627;SDS011;40525;55.926;21.066;2023-07-16T14:28:51;4.10;;;2.60;;
54627;SDS011;40525;55.926;21.066;2023-07-16T14:31:32;6.60;;;3.00;;
54627;SDS011;40525;55.926;21.066;2023-07-16T14:34:12;5.80;;;3.10;;
54627;SDS011;40525;55.926;21.066;2023-07-16T14:36:52;3.60;;;2.90;;
54627;SDS011;40525;55.926;21.066;2023-07-16T14:39:36;6.90;;;2.40;;
54627;SDS011;40525;55.926;21.066;2023-07-16T14:42:19;6.00;;;2.60;;
54627;SDS011;40525;55.926;21.066;2023-07-16T14:45:03;6.00;;;2.60;;
54627;SDS011;40525;55.926;21.066;2023-07-16T14:47:44;8.00;;;2.70;;
54627;SDS011;40525;55.926;21.066;2023-07-16T14:50:24;5.00;;;2.70;;
54627;SDS011;40525;55.926;21.066;2023-07-16T14:53:05;6.80;;;3.00;;
54627;SDS011;40525;55.926;21.066;2023-07-16T14:55:48;6.00;;;2.90;;
54627;SDS011;40525;55.926;21.066;2023-07-16T14:58:30;6.40;;;3.20;;
54627;SDS011;40525;55.926;21.066;2023-07-16T15:01:11;4.00;;;2.70;;
54627;SDS011;40525;55.926;21.066;2023-07-16T15:03:51;3.40;;;2.60;;
54627;SDS011;40525;55.926;21.066;2023-07-16T15:06:38;4.30;;;2.50;;
54627;SDS011;40525;55.926;21.066;2023-07-16T15:09:32;6.20;;;2.80;;
54627;SDS011;40525;55.926;21.066;2023-07-16T15:12:07;4.10;;;2.50;;
54627;SDS011;40525;55.926;21.066;2023-07-16T15:14:54;3.80;;;2.60;;
54627;SDS011;40525;55.926;21.066;2023-07-16T15:17:34;4.40;;;2.50;;
54627;SDS011;40525;55.926;21.066;2023-07-16T15:20:14;5.30;;;2.60;;
54627;SDS011;40525;55.926;21.066;2023-07-16T15:22:54;4.50;;;2.50;;
54627;SDS011;40525;55.926;21.066;2023-07-16T15:25:34;4.90;;;2.80;;
54627;SDS011;40525;55.926;21.066;2023-07-16T15:28:14;4.50;;;2.30;;
54627;SDS011;40525;55.926;21.066;2023-07-16T15:30:58;5.30;;;2.90;;
54627;SDS011;40525;55.926;21.066;2023-07-16T15:33:39;3.70;;;2.40;;
54627;SDS011;40525;55.926;21.066;2023-07-16T15:36:20;3.90;;;2.30;;
54627;SDS011;40525;55.926;21.066;2023-07-16T15:39:01;3.00;;;2.20;;
54627;SDS011;40525;55.926;21.066;2023-07-16T15:41:42;5.00;;;2.70;;
54627;SDS011;40525;55.926;21.066;2023-07-16T15:44:22;2.60;;;2.30;;
54627;SDS011;40525;55.926;21.066;2023-07-16T15:47:04;5.10;;;2.30;;
54627;SDS011;40525;55.926;21.066;2023-07-16T15:49:46;3.60;;;2.00;;
54627;SDS011;40525;55.926;21.066;2023-07-16T15:55:10;3.20;;;2.10;;
54627;SDS011;40525;55.926;21.066;2023-07-16T15:57:53;4.40;;;2.20;;
54627;SDS011;40525;55.926;21.066;2023-07-16T16:00:36;3.40;;;2.20;;
54627;SDS011;40525;55.926;21.066;2023-07-16T16:03:16;3.30;;;2.30;;
54627;SDS011;40525;55.926;21.066;2023-07-16T16:05:59;3.50;;;2.20;;
54627;SDS011;40525;55.926;21.066;2023-07-16T16:08:39;4.10;;;2.30;;
54627;SDS011;40525;55.926;21.066;2023-07-16T16:11:20;4.90;;;2.40;;
54627;SDS011;40525;55.926;21.066;2023-07-16T16:13:59;4.80;;;2.60;;
54627;SDS011;40525;55.926;21.066;2023-07-16T16:16:41;5.10;;;2.10;;